Stations météo

réclame
Mon MeteoGroup
Hoek van Holland, Pays-Bas (6330): Température de l'air & dewpoint: 11.11.2017 18:00:00 - 17.11.2017 18:00:00 (CET)Hoek van Holland, Pays-Bas (6330): Température de l'air 5cm: 11.11.2017 18:00:00 - 17.11.2017 18:00:00 (CET)Hoek van Holland, Pays-Bas (6330): Vitesse du vent & gusts: 11.11.2017 18:00:00 - 17.11.2017 18:00:00 (CET)Hoek van Holland, Pays-Bas (6330): Direction du vent: 11.11.2017 18:00:00 - 17.11.2017 18:00:00 (CET)Hoek van Holland, Pays-Bas (6330): reduced air pressure: 11.11.2017 18:00:00 - 17.11.2017 18:00:00 (CET)Hoek van Holland, Pays-Bas (6330): Quantités de précipitations: 11.11.2017 18:00:00 - 17.11.2017 18:00:00 (CET)
Date & Time tt [°C] td [°C] tt 5cm [°C] ff [km/h] ff [knt] fx [km/h] fx [knt] dd ppp [hPa] rr [mm]
17.11.2017 18:00:00 8,3 1,8 7,8 21 11 - - W 1027,0 -
17.11.2017 17:00:00 7,9 1,4 7,4 18 10 29 16 W 1027,1 0,0
17.11.2017 16:00:00 9,1 2,4 8,7 18 10 - - W 1027,4 0,0
17.11.2017 15:00:00 9,8 2,0 10,2 18 10 25 14 WNW 1027,2 0,0
17.11.2017 14:00:00 10,2 3,2 10,8 18 10 25 14 WNW 1027,8 0,0
17.11.2017 13:00:00 9,8 4,0 9,7 18 10 - - WNW 1028,0 0,0
17.11.2017 12:00:00 11,0 2,5 11,6 11 6 18 10 W 1028,1 0,0
17.11.2017 11:00:00 10,3 2,2 10,8 14 8 18 10 NW 1028,3 0,0
17.11.2017 10:00:00 9,7 1,5 9,4 14 8 - - NNW 1028,3 0,0
17.11.2017 09:00:00 8,0 0,7 6,8 14 8 22 12 NW 1028,3 0,0
17.11.2017 08:00:00 7,6 1,1 5,0 11 6 18 10 NNW 1027,9 0,0
17.11.2017 07:00:00 8,2 1,3 7,4 18 10 - - NNW 1027,6 0,0
17.11.2017 06:00:00 8,0 2,6 6,8 14 8 18 10 NNW 1027,3 0,0
17.11.2017 05:00:00 8,0 2,2 6,8 14 8 22 12 NNW 1026,9 0,0
17.11.2017 04:00:00 8,5 2,4 7,8 22 12 - - N 1026,7 0,0
17.11.2017 03:00:00 8,9 3,1 8,3 22 12 32 18 NNW 1026,6 0,0
17.11.2017 02:00:00 8,9 2,7 8,2 25 14 36 19 N 1026,2 0,0
17.11.2017 01:00:00 9,2 4,1 8,5 29 16 - - N 1025,9 0,0
17.11.2017 00:00:00 9,5 4,9 8,9 29 16 40 21 N 1025,3 0,0
16.11.2017 23:00:00 9,8 5,9 9,4 36 19 43 23 N 1024,8 0,0
16.11.2017 22:00:00 9,9 8,0 9,4 32 18 - - NNW 1024,5 0,3
16.11.2017 21:00:00 9,6 9,1 9,3 32 18 54 29 NNW 1023,8 0,0
16.11.2017 20:00:00 11,1 10,3 11,0 22 12 43 23 WNW 1022,8 0,4
16.11.2017 19:00:00 11,2 9,8 10,8 25 14 - - W 1022,4 0,0
16.11.2017 18:00:00 11,4 10,5 11,0 18 10 32 18 WSW 1021,9 0,0
16.11.2017 17:00:00 11,3 10,8 11,2 18 10 29 16 SW 1021,8 0,0
16.11.2017 16:00:00 11,2 10,6 11,2 22 12 - - SW 1021,6 0,0
16.11.2017 15:00:00 11,4 10,8 11,4 22 12 32 18 SW 1021,5 0,0
16.11.2017 14:00:00 11,0 10,8 11,0 22 12 32 18 SSW 1021,8 0,1
16.11.2017 13:00:00 10,5 10,1 10,5 22 12 - - SSW 1022,2 0,1
16.11.2017 12:00:00 10,2 9,7 10,2 25 14 32 18 SSW 1022,3 0,0
16.11.2017 11:00:00 9,7 9,2 9,7 22 12 29 16 SSW 1022,7 0,0
16.11.2017 10:00:00 9,5 9,2 9,4 22 12 - - SSW 1022,6 0,0
16.11.2017 09:00:00 9,3 9,0 9,2 22 12 25 14 S 1022,5 0,0
16.11.2017 08:00:00 9,1 8,9 9,1 18 10 25 14 SSW 1022,4 0,0
16.11.2017 07:00:00 9,3 9,1 9,3 22 12 - - SSW 1021,9 0,0
16.11.2017 06:00:00 9,5 9,4 9,5 22 12 32 18 S 1021,9 0,0
16.11.2017 05:00:00 9,5 9,4 9,5 18 10 25 14 S 1022,4 0,0
16.11.2017 04:00:00 9,5 9,4 9,5 18 10 - - S 1022,9 0,0
16.11.2017 03:00:00 9,5 9,5 9,5 18 10 25 14 S 1023,3 0,0
16.11.2017 02:00:00 9,5 9,4 9,5 18 10 29 16 S 1023,4 0,0
16.11.2017 01:00:00 9,4 9,3 9,4 18 10 - - S 1023,8 0,0
16.11.2017 00:00:00 9,5 9,3 9,5 18 10 22 12 S 1024,1 0,0
15.11.2017 23:00:00 10,1 9,8 10,0 14 8 18 10 S 1024,1 0,0
15.11.2017 22:00:00 10,1 9,9 10,0 14 8 - - S 1024,5 0,0
15.11.2017 21:00:00 10,2 9,9 10,1 14 8 18 10 SSW 1024,6 0,0
15.11.2017 20:00:00 10,2 10,1 10,1 14 8 22 12 SSW 1024,5 0,0
15.11.2017 19:00:00 10,4 10,2 10,3 14 8 - - S 1024,5 0,0
15.11.2017 18:00:00 10,7 10,5 10,6 11 6 22 12 SSW 1024,5 0,0
15.11.2017 17:00:00 11,1 10,9 11,0 14 8 22 12 SW 1024,6 0,0
15.11.2017 16:00:00 11,1 10,9 11,1 14 8 - - SW 1024,7 0,0
15.11.2017 15:00:00 11,1 10,9 11,2 14 8 18 10 SSW 1024,5 0,1
15.11.2017 14:00:00 11,0 10,8 11,1 14 8 22 12 SSW 1024,5 0,2
15.11.2017 13:00:00 11,1 10,8 11,1 18 10 - - SSW 1024,8 0,0
15.11.2017 12:00:00 10,6 10,4 10,7 18 10 22 12 SSW 1025,0 0,0
15.11.2017 11:00:00 10,2 10,0 10,2 18 10 22 12 SSW 1025,2 0,0
15.11.2017 10:00:00 10,0 9,8 9,9 18 10 - - SSW 1024,9 0,0
15.11.2017 09:00:00 9,8 9,7 9,7 22 12 25 14 SSW 1024,8 0,0
15.11.2017 08:00:00 9,7 9,6 9,7 18 10 22 12 S 1024,5 0,1
15.11.2017 07:00:00 9,6 9,5 9,5 18 10 - - SSW 1024,0 0,0
15.11.2017 06:00:00 9,6 9,6 9,6 18 10 25 14 SSW 1023,9 0,0
15.11.2017 05:00:00 9,6 9,4 9,6 18 10 25 14 SSW 1023,8 0,0
15.11.2017 04:00:00 9,6 9,5 9,5 22 12 - - SSW 1023,8 0,0
15.11.2017 03:00:00 9,6 9,5 9,6 25 14 32 18 S 1024,0 0,0
15.11.2017 02:00:00 9,5 9,3 9,4 22 12 25 14 SSW 1024,2 0,0
15.11.2017 01:00:00 9,6 9,3 9,5 18 10 - - SSW 1024,1 0,1
15.11.2017 00:00:00 9,5 9,4 9,5 22 12 29 16 SSW 1024,0 0,0
14.11.2017 23:00:00 9,6 9,3 9,6 22 12 29 16 SSW 1023,9 0,0
14.11.2017 22:00:00 9,6 9,4 9,5 18 10 - - SSW 1024,1 0,0
14.11.2017 21:00:00 9,7 9,3 9,6 22 12 29 16 SSW 1023,9 0,0
14.11.2017 20:00:00 10,7 10,1 10,5 18 10 25 14 WSW 1023,7 0,0
14.11.2017 19:00:00 10,5 10,1 10,3 18 10 - - WSW 1023,5 0,0
14.11.2017 18:00:00 10,4 10,2 10,3 14 8 25 14 W 1023,1 0,1
14.11.2017 17:00:00 10,3 10,0 10,2 22 12 32 18 W 1022,8 0,0
14.11.2017 16:00:00 10,3 9,9 10,3 22 12 - - WSW 1022,6 0,1
14.11.2017 15:00:00 10,3 9,8 10,4 25 14 36 19 W 1022,5 0,1
14.11.2017 14:00:00 10,4 9,3 10,3 29 16 43 23 WSW 1022,6 0,0
14.11.2017 13:00:00 9,3 8,2 9,3 29 16 - - SW 1022,4 0,0
14.11.2017 12:00:00 9,6 7,4 9,6 32 18 47 25 SW 1022,6 0,0
14.11.2017 11:00:00 8,2 6,1 7,9 32 18 47 25 SSW 1022,9 0,0
14.11.2017 10:00:00 8,1 5,3 8,1 25 14 - - SSW 1023,0 0,0
14.11.2017 09:00:00 7,7 4,8 7,6 29 16 43 23 SSW 1022,8 0,0
14.11.2017 08:00:00 8,7 3,7 8,1 22 12 43 23 SW 1022,3 0,0
14.11.2017 07:00:00 8,7 1,8 8,2 25 14 - - WSW 1022,3 0,0
14.11.2017 06:00:00 8,6 2,4 8,2 29 16 43 23 WSW 1022,7 0,0
14.11.2017 05:00:00 8,5 3,3 8,2 25 14 40 21 WSW 1022,6 0,0
14.11.2017 04:00:00 8,5 3,3 8,2 25 14 - - WSW 1023,2 0,0
14.11.2017 03:00:00 8,3 4,0 8,0 18 10 32 18 W 1023,5 0,0
14.11.2017 02:00:00 8,2 5,4 7,7 14 8 25 14 W 1023,6 0,0
14.11.2017 01:00:00 8,1 3,9 7,7 14 8 - - W 1023,8 0,0
14.11.2017 00:00:00 8,7 3,5 8,1 22 12 25 14 WNW 1023,9 0,0
13.11.2017 23:00:00 8,2 2,8 7,5 18 10 22 12 NW 1023,8 0,0
13.11.2017 22:00:00 8,3 3,0 7,6 22 12 - - NW 1023,8 0,0
13.11.2017 21:00:00 8,4 2,8 7,7 29 16 36 19 NNW 1023,7 0,0
13.11.2017 20:00:00 8,5 2,8 7,9 29 16 36 19 NNW 1023,4 0,0
13.11.2017 19:00:00 8,7 3,4 8,3 36 19 - - NNW 1023,4 0,0
13.11.2017 18:00:00 9,2 2,0 8,8 36 19 43 23 NNW 1022,8 0,0
13.11.2017 17:00:00 9,3 2,3 8,8 40 21 47 25 NNW 1022,2 0,0
13.11.2017 16:00:00 9,2 3,8 8,6 25 14 - - N 1022,1 0,0
13.11.2017 15:00:00 9,6 3,5 9,4 40 21 58 31 NNW 1021,6 0,0
13.11.2017 14:00:00 9,8 3,3 9,5 43 23 61 33 N 1021,2 0,0
13.11.2017 13:00:00 10,6 4,3 9,9 40 21 - - N 1020,9 0,0
13.11.2017 12:00:00 10,4 3,4 10,6 43 23 54 29 N 1020,8 0,0
13.11.2017 11:00:00 9,6 4,7 9,7 54 29 65 35 NNW 1020,3 0,0
13.11.2017 10:00:00 9,3 3,9 9,1 50 27 61 33 NNW 1019,7 0,0
13.11.2017 09:00:00 8,9 4,1 8,0 54 29 72 39 N 1018,9 0,0
13.11.2017 08:00:00 7,8 3,8 7,0 47 25 76 41 N 1018,2 0,5
13.11.2017 07:00:00 7,9 4,7 7,6 54 29 65 35 NNW 1017,4 0,0
13.11.2017 06:00:00 9,0 3,5 8,4 58 31 68 37 NNW 1016,4 0,0
13.11.2017 05:00:00 9,3 3,5 8,6 58 31 72 39 NNW 1015,7 0,0
13.11.2017 04:00:00 9,1 4,9 8,2 61 33 83 45 NNW 1014,9 0,4
13.11.2017 03:00:00 9,2 4,4 8,3 61 33 72 39 NNW 1014,1 0,4
13.11.2017 02:00:00 8,8 5,0 8,3 61 33 76 41 NNW 1013,6 0,1
13.11.2017 01:00:00 8,9 4,6 7,2 58 31 83 45 N 1012,8 0,1
13.11.2017 00:00:00 8,8 5,0 8,1 65 35 83 45 NNW 1011,8 0,3
12.11.2017 23:00:00 8,0 5,4 6,2 50 27 68 37 NNW 1011,0 2,1
12.11.2017 22:00:00 9,2 3,6 8,4 61 33 76 41 N 1010,2 0,1
12.11.2017 21:00:00 8,5 3,8 7,8 65 35 83 45 NNW 1009,1 0,0
12.11.2017 20:00:00 7,1 4,9 6,8 40 21 54 29 NNE 1007,9 0,1
12.11.2017 19:00:00 6,9 4,3 6,7 65 35 83 45 N 1006,6 0,5
12.11.2017 18:00:00 7,2 4,8 6,4 65 35 83 45 N 1005,1 1,7
12.11.2017 17:00:00 7,5 5,2 6,8 65 35 76 41 N 1003,3 2,7
12.11.2017 16:00:00 7,2 5,1 7,0 50 27 68 37 NW 1002,2 1,0
12.11.2017 15:00:00 7,2 5,2 6,6 47 25 65 35 NW 1001,5 0,7
12.11.2017 14:00:00 6,1 3,9 5,8 40 21 72 39 NNW 1001,7 1,0
12.11.2017 13:00:00 5,8 4,1 5,8 43 23 65 35 NNW 1001,6 1,3
12.11.2017 12:00:00 6,6 4,3 6,2 43 23 61 33 WNW 1001,4 2,2
12.11.2017 11:00:00 5,0 3,8 5,0 61 33 83 45 NW 1002,6 1,2
12.11.2017 10:00:00 6,3 4,0 5,6 29 16 43 23 NW 1002,5 0,4
12.11.2017 09:00:00 8,2 1,1 7,5 36 19 61 33 WNW 1002,7 0,0
12.11.2017 08:00:00 6,7 3,6 6,3 22 12 47 25 W 1003,4 0,8
12.11.2017 07:00:00 8,2 2,5 8,0 40 21 54 29 W 1004,2 0,0
12.11.2017 06:00:00 8,7 2,7 8,4 29 16 47 25 W 1005,2 0,0
12.11.2017 05:00:00 8,6 2,3 8,2 25 14 32 18 W 1006,3 0,0
12.11.2017 04:00:00 8,5 3,4 8,0 25 14 36 19 W 1007,1 0,0
12.11.2017 03:00:00 6,9 4,2 6,0 11 6 18 10 WSW 1007,7 0,0
12.11.2017 02:00:00 7,3 4,0 6,7 14 8 36 19 WNW 1008,6 0,3
12.11.2017 01:00:00 8,2 3,7 7,7 22 12 40 21 NW 1009,5 0,0
12.11.2017 00:00:00 7,4 4,9 7,2 18 10 40 21 NW 1009,9 0,3
11.11.2017 23:00:00 8,3 3,2 7,9 11 6 58 31 WNW 1010,2 0,0
11.11.2017 22:00:00 9,2 3,5 8,5 36 19 47 25 NW 1010,2 0,0
11.11.2017 21:00:00 7,8 4,5 7,5 25 14 58 31 WNW 1010,3 0,1
11.11.2017 20:00:00 9,2 2,6 8,6 40 21 47 25 NW 1010,0 0,0
11.11.2017 19:00:00 9,5 3,4 8,9 32 18 40 21 NW 1009,5 0,0
11.11.2017 18:00:00 9,2 3,8 8,4 32 18 43 23 NW 1009,1 0,0

tt = Température de l'air
td = dewpoint
tt 5cm = Température de l'air 5cm
ff = Vitesse du vent
fx = gusts
dd = Direction du vent
ppp = reduced air pressure
rr = Quantités de précipitations

stations d'obs. à proximité